createdAt,value
2022-10-15T00:00:11.376Z,75.41
2022-10-15T00:03:00.310Z,75.52
2022-10-15T00:05:29.211Z,75.49
2022-10-15T00:08:00.146Z,75.58
2022-10-15T00:10:28.897Z,75.61
2022-10-15T00:12:57.741Z,75.73
2022-10-15T00:15:31.843Z,75.75
2022-10-15T00:18:00.657Z,75.79
2022-10-15T00:20:30.450Z,75.89
2022-10-15T00:22:59.241Z,75.99
2022-10-15T00:25:33.628Z,75.98
2022-10-15T00:28:02.535Z,76.06
2022-10-15T00:30:31.493Z,76.11
2022-10-15T00:33:02.936Z,76.05
2022-10-15T00:35:36.257Z,76.16
2022-10-15T00:38:05.160Z,76.16
2022-10-15T00:40:34.152Z,76.10
2022-10-15T00:43:03.301Z,76.06
2022-10-15T00:45:32.489Z,76.06
2022-10-15T00:48:07.693Z,76.06
2022-10-15T00:50:37.084Z,76.15
2022-10-15T00:53:09.968Z,76.22
2022-10-15T00:55:44.043Z,76.23
2022-10-15T00:58:22.585Z,76.32
2022-10-15T01:00:51.577Z,76.41
2022-10-15T01:03:23.206Z,76.44
2022-10-15T01:06:00.605Z,76.40
2022-10-15T01:08:31.470Z,76.49
2022-10-15T01:11:20.873Z,76.50
2022-10-15T01:14:47.453Z,76.68
2022-10-15T01:17:32.989Z,76.85
2022-10-15T01:20:25.513Z,76.88
2022-10-15T01:23:25.108Z,76.99
2022-10-15T01:26:28.605Z,76.96
2022-10-15T01:29:22.287Z,77.02
2022-10-15T01:32:07.989Z,77.37
2022-10-15T01:34:49.441Z,77.43
2022-10-15T01:37:27.358Z,77.44
2022-10-15T01:40:14.828Z,77.49
2022-10-15T01:42:50.180Z,77.50
2022-10-15T01:45:28.533Z,77.47
2022-10-15T01:48:27.265Z,77.61
2022-10-15T01:51:04.163Z,77.60
2022-10-15T01:53:36.687Z,77.62
2022-10-15T01:56:15.771Z,77.68
2022-10-15T01:58:47.302Z,77.77
2022-10-15T02:01:16.775Z,77.72
2022-10-15T02:03:52.270Z,77.87
2022-10-15T02:06:35.034Z,77.91
2022-10-15T02:09:57.369Z,77.85
2022-10-15T02:12:56.811Z,77.92
2022-10-15T02:15:49.989Z,78.01
2022-10-15T02:18:37.588Z,78.07
2022-10-15T02:21:16.594Z,78.02
2022-10-15T02:24:09.351Z,77.93
2022-10-15T02:26:42.725Z,77.97
2022-10-15T02:29:18.239Z,77.89
2022-10-15T02:31:49.944Z,78.01
2022-10-15T02:34:22.767Z,78.06
2022-10-15T02:36:55.576Z,77.98
2022-10-15T02:39:25.769Z,78.10
2022-10-15T02:41:57.685Z,78.20
2022-10-15T02:44:28.731Z,78.14
2022-10-15T02:46:59.748Z,78.20
2022-10-15T02:49:28.799Z,78.06
2022-10-15T02:51:57.725Z,78.03
2022-10-15T02:54:26.572Z,78.09
2022-10-15T02:56:55.467Z,78.01
2022-10-15T02:59:26.565Z,78.08
2022-10-15T03:01:57.401Z,78.06
2022-10-15T03:04:29.217Z,78.12
2022-10-15T03:06:58.143Z,78.20
2022-10-15T03:09:31.249Z,78.21
2022-10-15T03:12:01.388Z,78.30
2022-10-15T03:14:38.822Z,78.26
2022-10-15T03:17:12.154Z,78.32
2022-10-15T03:19:43.467Z,78.43
2022-10-15T03:22:13.297Z,78.43
2022-10-15T03:24:50.873Z,78.50
2022-10-15T03:27:25.622Z,78.40
2022-10-15T03:29:55.247Z,78.42
2022-10-15T03:32:31.976Z,78.44
2022-10-15T03:35:05.281Z,78.37
2022-10-15T03:37:36.683Z,78.56
2022-10-15T03:40:13.638Z,78.55
2022-10-15T03:42:51.936Z,78.65
2022-10-15T03:45:29.157Z,78.61
2022-10-15T03:48:14.311Z,78.73
2022-10-15T03:53:12.123Z,78.78
2022-10-15T03:55:42.775Z,78.76
2022-10-15T03:58:23.379Z,78.76
2022-10-15T04:01:00.977Z,78.80
2022-10-15T04:03:30.122Z,78.75
2022-10-15T04:06:02.732Z,78.78
2022-10-15T04:08:33.272Z,78.73
2022-10-15T04:11:06.734Z,78.75
2022-10-15T04:13:36.091Z,78.72
2022-10-15T04:16:06.996Z,78.66
2022-10-15T04:18:36.002Z,78.59
2022-10-15T04:21:05.097Z,78.66
2022-10-15T04:23:35.422Z,78.81
2022-10-15T04:26:25.219Z,78.88
2022-10-15T04:28:54.134Z,78.91
2022-10-15T04:31:23.890Z,78.99
2022-10-15T04:33:52.938Z,79.00
2022-10-15T04:36:21.835Z,78.85
2022-10-15T04:39:02.055Z,78.78
2022-10-15T04:41:37.051Z,78.71
2022-10-15T04:44:11.623Z,78.60
2022-10-15T04:46:46.138Z,78.57
2022-10-15T04:49:35.089Z,78.56
2022-10-15T04:52:05.816Z,78.46
2022-10-15T04:54:51.541Z,78.39
2022-10-15T04:57:20.958Z,78.40
2022-10-15T04:59:57.671Z,78.37
2022-10-15T05:02:53.694Z,78.42
2022-10-15T05:05:26.943Z,78.43
2022-10-15T05:08:06.762Z,78.39
2022-10-15T05:10:45.971Z,78.32
2022-10-15T05:13:14.982Z,78.25
2022-10-15T05:15:44.524Z,78.20
2022-10-15T05:18:16.888Z,78.10
2022-10-15T05:20:52.507Z,78.06
2022-10-15T05:23:21.748Z,77.93
2022-10-15T05:26:03.878Z,78.02
2022-10-15T05:28:34.832Z,78.07
2022-10-15T05:31:14.733Z,78.14
2022-10-15T05:33:50.397Z,78.22
2022-10-15T05:36:29.381Z,78.31
2022-10-15T05:39:01.747Z,78.24
2022-10-15T05:41:32.435Z,78.25
2022-10-15T05:44:01.380Z,78.21
2022-10-15T05:46:35.470Z,78.09
2022-10-15T05:49:07.099Z,78.25
2022-10-15T05:51:58.313Z,78.16
2022-10-15T05:55:01.060Z,78.19
2022-10-15T05:57:37.459Z,78.32
2022-10-15T06:00:11.419Z,78.39
2022-10-15T06:02:43.468Z,78.31
2022-10-15T06:05:13.340Z,78.19
2022-10-15T06:07:55.658Z,78.15
2022-10-15T06:10:25.888Z,78.05
2022-10-15T06:12:57.115Z,77.95
2022-10-15T06:15:35.872Z,77.94
2022-10-15T06:18:09.954Z,77.94
2022-10-15T06:20:44.479Z,77.86
2022-10-15T06:23:15.152Z,77.94
2022-10-15T06:25:47.495Z,77.98
2022-10-15T06:28:18.011Z,77.84
2022-10-15T06:31:36.146Z,77.67
2022-10-15T06:34:17.451Z,77.70
2022-10-15T06:36:46.792Z,77.58
2022-10-15T06:39:22.076Z,77.27
2022-10-15T06:42:04.832Z,77.56
2022-10-15T06:44:50.124Z,77.33
2022-10-15T06:47:26.539Z,76.98
2022-10-15T06:50:09.535Z,76.79
2022-10-15T06:52:44.832Z,76.70
2022-10-15T06:55:26.111Z,76.64
2022-10-15T07:00:02.053Z,76.92
2022-10-15T07:01:30.407Z,76.72
2022-10-15T07:04:22.245Z,76.58
2022-10-15T07:06:52.576Z,75.92
2022-10-15T07:09:42.587Z,75.71
2022-10-15T07:12:21.064Z,75.30
2022-10-15T07:14:54.457Z,75.29
2022-10-15T07:17:37.322Z,75.38
2022-10-15T07:20:35.535Z,75.01
2022-10-15T07:23:27.969Z,74.61
2022-10-15T07:26:29.860Z,74.58
2022-10-15T07:30:05.412Z,74.70
2022-10-15T07:33:06.900Z,74.92
2022-10-15T07:35:57.661Z,75.30
2022-10-15T07:39:16.470Z,75.33
2022-10-15T07:42:27.964Z,75.05
2022-10-15T07:45:25.658Z,74.73
2022-10-15T07:48:16.312Z,74.71
2022-10-15T07:51:28.413Z,74.48
2022-10-15T07:54:47.527Z,74.45
2022-10-15T07:59:59.012Z,74.26
2022-10-15T08:05:40.110Z,74.58
2022-10-15T08:09:05.293Z,74.34
2022-10-15T08:11:57.042Z,73.69
2022-10-15T08:15:33.057Z,73.55
2022-10-15T08:21:09.608Z,72.91
2022-10-15T08:23:59.525Z,72.63
2022-10-15T08:26:36.614Z,71.91
2022-10-15T08:29:10.533Z,71.50
2022-10-15T08:31:59.181Z,71.56
2022-10-15T08:34:49.100Z,71.38
2022-10-15T08:37:29.810Z,71.43
2022-10-15T08:40:16.064Z,71.44
2022-10-15T08:43:06.022Z,71.50
2022-10-15T08:45:57.946Z,71.69
2022-10-15T08:48:51.670Z,71.54
2022-10-15T08:51:53.209Z,71.50
2022-10-15T08:54:52.759Z,71.64
2022-10-15T09:01:04.125Z,71.45
2022-10-15T09:04:23.769Z,71.19
2022-10-15T09:07:37.790Z,70.55
2022-10-15T09:13:44.550Z,70.45
2022-10-15T09:16:31.766Z,70.29
2022-10-15T09:19:35.949Z,69.90
2022-10-15T09:22:21.046Z,69.60
2022-10-15T09:24:58.093Z,68.97
2022-10-15T09:27:39.887Z,68.48
2022-10-15T09:30:40.849Z,68.39
2022-10-15T09:33:32.367Z,67.88
2022-10-15T09:36:40.256Z,67.34
2022-10-15T09:39:35.741Z,67.47
2022-10-15T09:42:49.672Z,67.28
2022-10-15T09:45:26.333Z,67.17
2022-10-15T09:48:24.159Z,67.23
2022-10-15T09:51:47.291Z,67.22
2022-10-15T09:54:57.110Z,67.47
2022-10-15T10:09:32.010Z,66.22
2022-10-15T10:16:28.457Z,65.82
2022-10-15T10:19:23.941Z,65.87
2022-10-15T10:23:30.043Z,65.30
2022-10-15T10:26:56.034Z,63.89
2022-10-15T10:33:49.245Z,63.10
2022-10-15T10:36:45.182Z,63.14
2022-10-15T10:39:45.234Z,62.31
2022-10-15T10:42:41.669Z,62.58
2022-10-15T10:45:24.298Z,62.88
2022-10-15T10:47:57.592Z,62.35
2022-10-15T10:50:42.081Z,62.11
2022-10-15T10:53:37.912Z,62.52
2022-10-15T10:56:17.697Z,62.53
2022-10-15T10:59:07.413Z,62.32
2022-10-15T11:01:41.825Z,62.58
2022-10-15T11:04:36.770Z,63.12
2022-10-15T11:07:32.881Z,63.21
2022-10-15T11:11:11.311Z,63.80
2022-10-15T11:14:23.061Z,63.83
2022-10-15T11:17:33.871Z,64.13
2022-10-15T11:20:50.907Z,64.42
2022-10-15T11:24:33.473Z,64.12
2022-10-15T11:28:04.865Z,64.26
2022-10-15T11:30:57.560Z,64.55
2022-10-15T11:34:59.393Z,64.97
2022-10-15T11:38:30.128Z,65.54
2022-10-15T11:42:06.991Z,66.22
2022-10-15T11:45:22.523Z,67.15
2022-10-15T11:48:16.660Z,67.39
2022-10-15T11:51:01.067Z,67.17
2022-10-15T11:54:07.765Z,67.32
2022-10-15T11:56:55.465Z,67.66
2022-10-15T11:59:50.404Z,67.51
2022-10-15T12:02:27.053Z,67.55
2022-10-15T12:05:32.133Z,68.12
2022-10-15T12:08:02.555Z,68.29
2022-10-15T12:10:42.602Z,67.86
2022-10-15T12:13:42.256Z,67.79
2022-10-15T12:16:25.143Z,67.48
2022-10-15T12:19:14.511Z,67.37
2022-10-15T12:22:07.538Z,66.85
2022-10-15T12:24:45.364Z,66.49
2022-10-15T12:27:22.749Z,66.14
2022-10-15T12:30:18.079Z,66.09
2022-10-15T12:33:04.178Z,65.88
2022-10-15T12:35:41.090Z,65.75
2022-10-15T12:38:29.169Z,65.61
2022-10-15T12:41:13.306Z,65.68
2022-10-15T12:44:07.293Z,65.52
2022-10-15T12:46:42.687Z,65.42
2022-10-15T12:49:27.195Z,65.61
2022-10-15T12:52:01.403Z,65.76
2022-10-15T12:54:44.937Z,65.68
2022-10-15T12:57:41.480Z,65.36
2022-10-15T13:00:38.825Z,65.50
2022-10-15T13:03:28.017Z,65.49
2022-10-15T13:06:15.096Z,65.41
2022-10-15T13:09:12.800Z,65.49
2022-10-15T13:14:43.126Z,65.45
2022-10-15T13:17:23.184Z,65.47
2022-10-15T13:20:11.155Z,65.60
2022-10-15T13:22:40.410Z,65.48
2022-10-15T13:25:17.610Z,65.14
2022-10-15T13:27:46.917Z,64.98
2022-10-15T13:30:39.323Z,64.90
2022-10-15T13:33:18.217Z,64.91
2022-10-15T13:35:47.454Z,64.66
2022-10-15T13:38:25.465Z,64.67
2022-10-15T13:40:54.692Z,64.20
2022-10-15T13:43:26.188Z,63.69
2022-10-15T13:46:01.797Z,63.40
2022-10-15T13:48:41.268Z,63.13
2022-10-15T13:51:13.545Z,63.08
2022-10-15T13:53:42.701Z,62.92
2022-10-15T13:56:47.757Z,62.39
2022-10-15T13:59:22.563Z,61.95
2022-10-15T14:02:04.417Z,61.73
2022-10-15T14:04:34.018Z,61.64
2022-10-15T14:07:23.102Z,61.61
2022-10-15T14:09:53.010Z,61.33
2022-10-15T14:12:22.136Z,61.24
2022-10-15T14:14:51.239Z,61.20
2022-10-15T14:17:20.200Z,61.18
2022-10-15T14:20:25.346Z,61.19
2022-10-15T14:22:49.732Z,61.08
2022-10-15T14:25:25.175Z,61.13
2022-10-15T14:27:56.448Z,61.12
2022-10-15T14:30:35.641Z,61.05
2022-10-15T14:33:05.128Z,60.92
2022-10-15T14:35:37.811Z,60.64
2022-10-15T14:38:22.685Z,60.50
2022-10-15T14:41:19.052Z,60.37
2022-10-15T14:44:20.154Z,60.49
2022-10-15T14:46:59.185Z,60.42
2022-10-15T14:49:35.992Z,60.40
2022-10-15T14:52:19.048Z,60.42
2022-10-15T14:55:05.606Z,60.50
2022-10-15T14:57:40.932Z,60.45
2022-10-15T15:00:21.540Z,60.46
2022-10-15T15:02:51.008Z,60.41
2022-10-15T15:05:27.275Z,60.52
2022-10-15T15:08:04.393Z,60.91
2022-10-15T15:10:37.964Z,60.86
2022-10-15T15:13:07.294Z,60.84
2022-10-15T15:15:36.693Z,60.95
2022-10-15T15:18:11.109Z,60.98
2022-10-15T15:20:44.794Z,60.98
2022-10-15T15:23:20.928Z,61.01
2022-10-15T15:25:55.191Z,61.13
2022-10-15T15:28:30.453Z,61.19
2022-10-15T15:31:20.984Z,61.20
2022-10-15T15:33:50.313Z,61.37
2022-10-15T15:36:23.606Z,61.66
2022-10-15T15:38:58.987Z,61.80
2022-10-15T15:41:28.438Z,61.88
2022-10-15T15:44:05.713Z,62.02
2022-10-15T15:46:36.082Z,62.05
2022-10-15T15:49:05.478Z,62.12
2022-10-15T15:51:37.437Z,62.24
2022-10-15T15:54:10.845Z,62.40
2022-10-15T15:59:13.694Z,62.65
2022-10-15T16:01:43.235Z,62.79
2022-10-15T16:04:13.559Z,62.94
2022-10-15T16:06:49.073Z,63.06
2022-10-15T16:09:23.321Z,63.01
2022-10-15T16:11:57.083Z,62.99
2022-10-15T16:14:26.481Z,63.06
2022-10-15T16:17:01.785Z,63.12
2022-10-15T16:19:35.490Z,63.22
2022-10-15T16:22:07.073Z,63.28
2022-10-15T16:24:39.176Z,63.27
2022-10-15T16:27:09.675Z,63.56
2022-10-15T16:29:41.843Z,63.51
2022-10-15T16:32:10.969Z,63.62
2022-10-15T16:34:40.164Z,63.76
2022-10-15T16:37:09.352Z,63.85
2022-10-15T16:39:41.150Z,63.92
2022-10-15T16:42:10.155Z,63.94
2022-10-15T16:44:39.221Z,63.98
2022-10-15T16:47:08.171Z,63.97
2022-10-15T16:49:37.540Z,64.12
2022-10-15T16:52:11.535Z,64.01
2022-10-15T16:54:40.587Z,63.92
2022-10-15T16:57:09.606Z,64.10
2022-10-15T16:59:41.571Z,64.17
2022-10-15T17:02:12.713Z,64.35
2022-10-15T17:04:52.033Z,64.33
2022-10-15T17:07:25.647Z,64.43
2022-10-15T17:09:55.077Z,64.49
2022-10-15T17:12:24.512Z,64.50
2022-10-15T17:14:58.135Z,64.60
2022-10-15T17:17:33.953Z,64.73
2022-10-15T17:20:27.564Z,64.80
2022-10-15T17:23:14.122Z,64.95
2022-10-15T17:25:52.086Z,65.04
2022-10-15T17:28:23.701Z,65.15
2022-10-15T17:30:55.699Z,65.09
2022-10-15T17:33:27.226Z,65.18
2022-10-15T17:35:56.741Z,65.35
2022-10-15T17:38:32.181Z,65.45
2022-10-15T17:41:20.682Z,65.59
2022-10-15T17:43:50.827Z,65.65
2022-10-15T17:46:24.072Z,65.92
2022-10-15T17:48:54.685Z,65.98
2022-10-15T17:51:31.164Z,66.13
2022-10-15T17:54:01.653Z,66.39
2022-10-15T17:56:34.633Z,66.55
2022-10-15T17:59:07.119Z,66.65
2022-10-15T18:04:30.380Z,67.10
2022-10-15T18:06:59.432Z,67.22
2022-10-15T18:09:28.767Z,67.14
2022-10-15T18:12:03.900Z,67.12
2022-10-15T18:14:47.376Z,67.15
2022-10-15T18:17:24.668Z,67.38
2022-10-15T18:20:00.815Z,67.54
2022-10-15T18:22:46.817Z,67.79
2022-10-15T18:25:27.755Z,67.96
2022-10-15T18:28:02.395Z,68.16
2022-10-15T18:31:06.258Z,68.44
2022-10-15T18:33:45.245Z,68.48
2022-10-15T18:36:33.695Z,68.49
2022-10-15T18:39:20.809Z,68.59
2022-10-15T18:42:00.620Z,68.71
2022-10-15T18:45:04.703Z,68.74
2022-10-15T18:47:56.698Z,68.69
2022-10-15T18:50:35.151Z,68.62
2022-10-15T18:53:28.035Z,68.65
2022-10-15T18:56:04.820Z,68.70
2022-10-15T18:58:41.310Z,68.86
2022-10-15T19:01:31.596Z,68.86
2022-10-15T19:04:10.289Z,68.95
2022-10-15T19:06:53.778Z,68.83
2022-10-15T19:09:31.977Z,68.81
2022-10-15T19:12:28.671Z,68.92
2022-10-15T19:15:11.139Z,69.07
2022-10-15T19:17:50.032Z,69.11
2022-10-15T19:20:25.280Z,69.37
2022-10-15T19:23:04.441Z,69.42
2022-10-15T19:25:48.278Z,69.33
2022-10-15T19:28:41.664Z,69.25
2022-10-15T19:31:26.163Z,69.47
2022-10-15T19:34:16.016Z,69.63
2022-10-15T19:36:51.381Z,69.61
2022-10-15T19:39:35.926Z,69.70
2022-10-15T19:42:07.222Z,69.71
2022-10-15T19:44:52.054Z,69.55
2022-10-15T19:47:40.877Z,69.59
2022-10-15T19:50:18.593Z,69.92
2022-10-15T19:53:01.340Z,69.75
2022-10-15T19:56:08.479Z,69.83
2022-10-15T19:58:49.197Z,69.89
2022-10-15T20:05:10.505Z,70.05
2022-10-15T20:07:58.451Z,69.88
2022-10-15T20:10:29.870Z,69.70
2022-10-15T20:13:41.359Z,69.75
2022-10-15T20:16:23.360Z,69.82
2022-10-15T20:18:59.562Z,69.87
2022-10-15T20:21:32.515Z,69.92
2022-10-15T20:24:04.997Z,69.85
2022-10-15T20:26:40.963Z,69.80
2022-10-15T20:29:18.172Z,69.81
2022-10-15T20:32:05.667Z,69.98
2022-10-15T20:34:58.606Z,70.28
2022-10-15T20:37:41.840Z,69.82
2022-10-15T20:40:23.530Z,69.88
2022-10-15T20:43:15.161Z,69.98
2022-10-15T20:45:59.751Z,69.92
2022-10-15T20:48:40.675Z,69.71
2022-10-15T20:55:06.158Z,70.13
2022-10-15T21:01:14.964Z,70.01
2022-10-15T21:04:04.168Z,70.06
2022-10-15T21:07:04.778Z,70.12
2022-10-15T21:09:42.908Z,69.93
2022-10-15T21:12:31.261Z,69.74
2022-10-15T21:15:23.099Z,69.69
2022-10-15T21:32:35.745Z,69.60
2022-10-15T21:35:17.237Z,69.36
2022-10-15T21:41:45.301Z,69.30
2022-10-15T21:53:43.356Z,69.53
2022-10-15T21:56:25.682Z,69.17
2022-10-15T21:59:51.302Z,69.13
2022-10-15T22:02:33.507Z,69.37
2022-10-15T22:05:42.300Z,69.44
2022-10-15T22:09:09.421Z,69.28
2022-10-15T22:13:00.183Z,69.19
2022-10-15T22:20:06.397Z,68.90
2022-10-15T22:26:47.608Z,68.97
2022-10-15T22:30:18.660Z,69.29
2022-10-15T22:33:15.973Z,69.48
2022-10-15T22:37:20.335Z,69.50
2022-10-15T22:41:02.238Z,69.59
2022-10-15T22:57:32.141Z,69.76
2022-10-15T23:08:40.981Z,69.88
2022-10-15T23:13:47.089Z,70.00
2022-10-15T23:15:36.500Z,70.12
2022-10-15T23:18:59.014Z,70.12
2022-10-15T23:22:15.049Z,70.28
2022-10-15T23:25:23.324Z,70.36
2022-10-15T23:28:20.484Z,70.49
2022-10-15T23:31:24.587Z,70.49
2022-10-15T23:34:57.841Z,70.37
2022-10-15T23:41:20.101Z,70.38
2022-10-15T23:47:36.524Z,70.55
2022-10-15T23:52:20.136Z,70.75
2022-10-15T23:54:53.277Z,70.90
